createdAt,value
2023-02-11T00:01:00.549Z,103636.28
2023-02-11T00:03:27.066Z,103638.09
2023-02-11T00:05:58.671Z,103627.81
2023-02-11T00:08:25.682Z,103632.91
2023-02-11T00:10:55.145Z,103616.28
2023-02-11T00:13:22.769Z,103618.88
2023-02-11T00:15:50.214Z,103625.91
2023-02-11T00:18:16.945Z,103621.56
2023-02-11T00:20:43.776Z,103623.28
2023-02-11T00:23:10.278Z,103624.91
2023-02-11T00:25:45.126Z,103617.91
2023-02-11T00:28:12.882Z,103621.50
2023-02-11T00:30:39.814Z,103623.28
2023-02-11T00:33:06.413Z,103629.50
2023-02-11T00:35:32.971Z,103624.44
2023-02-11T00:37:59.426Z,103629.50
2023-02-11T00:40:25.930Z,103629.59
2023-02-11T00:42:52.404Z,103623.38
2023-02-11T00:45:20.945Z,103631.41
2023-02-11T00:47:47.801Z,103631.31
2023-02-11T00:50:14.362Z,103635.81
2023-02-11T00:52:40.934Z,103626.19
2023-02-11T00:55:07.737Z,103628.78
2023-02-11T00:57:34.419Z,103625.38
2023-02-11T01:00:00.905Z,103627.91
2023-02-11T01:02:27.508Z,103620.09
2023-02-11T01:04:54.085Z,103601.78
2023-02-11T01:07:20.640Z,103603.69
2023-02-11T01:09:47.120Z,103605.44
2023-02-11T01:12:13.585Z,103596.69
2023-02-11T01:14:40.075Z,103599.53
2023-02-11T01:17:06.633Z,103597.06
2023-02-11T01:19:33.476Z,103601.59
2023-02-11T01:22:00.181Z,103598.06
2023-02-11T01:24:26.698Z,103576.31
2023-02-11T01:26:53.159Z,103557.91
2023-02-11T01:29:19.823Z,103574.69
2023-02-11T01:31:46.612Z,103582.78
2023-02-11T01:34:13.424Z,103585.72
2023-02-11T01:36:40.590Z,103589.28
2023-02-11T01:39:08.705Z,103598.97
2023-02-11T01:41:35.887Z,103610.22
2023-02-11T01:44:40.203Z,103619.84
2023-02-11T01:47:06.734Z,103626.81
2023-02-11T01:49:42.970Z,103610.41
2023-02-11T01:52:23.579Z,103612.94
2023-02-11T01:55:12.795Z,103612.28
2023-02-11T01:57:43.487Z,103606.13
2023-02-11T02:00:09.948Z,103604.59
2023-02-11T02:03:04.742Z,103619.66
2023-02-11T02:05:43.318Z,103623.34
2023-02-11T02:08:25.986Z,103621.66
2023-02-11T02:10:56.451Z,103618.31
2023-02-11T02:13:24.382Z,103612.28
2023-02-11T02:15:53.669Z,103608.81
2023-02-11T02:18:35.922Z,103610.53
2023-02-11T02:21:20.693Z,103608.81
2023-02-11T02:24:35.435Z,103599.22
2023-02-11T02:27:10.637Z,103607.28
2023-02-11T02:30:08.171Z,103597.06
2023-02-11T02:32:43.663Z,103599.13
2023-02-11T02:35:37.912Z,103600.22
2023-02-11T02:38:24.817Z,103601.22
2023-02-11T02:41:03.475Z,103590.78
2023-02-11T02:43:31.301Z,103576.09
2023-02-11T02:46:21.011Z,103577.84
2023-02-11T02:48:52.783Z,103587.28
2023-02-11T02:51:30.586Z,103584.66
2023-02-11T02:54:21.228Z,103590.03
2023-02-11T02:56:56.784Z,103600.41
2023-02-11T02:59:41.938Z,103589.94
2023-02-11T03:02:18.264Z,103589.84
2023-02-11T03:04:53.725Z,103596.72
2023-02-11T03:07:41.494Z,103581.94
2023-02-11T03:10:19.377Z,103569.69
2023-02-11T03:12:48.252Z,103578.38
2023-02-11T03:15:16.484Z,103584.41
2023-02-11T03:17:47.594Z,103575.72
2023-02-11T03:20:17.564Z,103555.47
2023-02-11T03:22:52.846Z,103550.19
2023-02-11T03:25:21.185Z,103555.47
2023-02-11T03:27:56.258Z,103563.50
2023-02-11T03:30:32.575Z,103551.31
2023-02-11T03:33:09.045Z,103560.09
2023-02-11T03:35:42.080Z,103553.28
2023-02-11T03:38:20.274Z,103562.91
2023-02-11T03:40:47.580Z,103559.41
2023-02-11T03:43:30.872Z,103554.22
2023-02-11T03:46:00.346Z,103555.81
2023-02-11T03:48:33.904Z,103546.22
2023-02-11T03:51:05.524Z,103535.03
2023-02-11T03:53:32.237Z,103540.28
2023-02-11T03:56:02.852Z,103533.56
2023-02-11T03:58:29.324Z,103543.28
2023-02-11T04:00:55.865Z,103545.16
2023-02-11T04:03:22.368Z,103553.88
2023-02-11T04:05:49.120Z,103561.72
2023-02-11T04:08:15.791Z,103567.94
2023-02-11T04:10:42.307Z,103557.47
2023-02-11T04:13:08.756Z,103564.25
2023-02-11T04:15:35.222Z,103560.69
2023-02-11T04:18:03.377Z,103567.41
2023-02-11T04:20:30.233Z,103565.72
2023-02-11T04:22:56.789Z,103566.31
2023-02-11T04:25:23.263Z,103569.69
2023-02-11T04:27:49.855Z,103573.94
2023-02-11T04:30:16.345Z,103570.47
2023-02-11T04:32:42.929Z,103574.63
2023-02-11T04:35:09.960Z,103573.69
2023-02-11T04:37:36.473Z,103569.16
2023-02-11T04:40:03.857Z,103579.78
2023-02-11T04:42:30.645Z,103566.38
2023-02-11T04:44:57.074Z,103574.97
2023-02-11T04:47:23.536Z,103573.19
2023-02-11T04:49:50.025Z,103573.94
2023-02-11T04:52:16.532Z,103569.63
2023-02-11T04:54:43.000Z,103569.44
2023-02-11T04:57:09.456Z,103565.88
2023-02-11T04:59:36.052Z,103572.84
2023-02-11T05:02:02.726Z,103562.34
2023-02-11T05:04:29.255Z,103567.56
2023-02-11T05:06:58.297Z,103570.97
2023-02-11T05:09:25.140Z,103565.69
2023-02-11T05:11:51.621Z,103572.56
2023-02-11T05:14:18.087Z,103575.13
2023-02-11T05:16:44.726Z,103579.44
2023-02-11T05:19:11.277Z,103577.66
2023-02-11T05:21:37.832Z,103565.31
2023-02-11T05:24:04.743Z,103574.94
2023-02-11T05:26:31.971Z,103575.69
2023-02-11T05:28:58.428Z,103580.09
2023-02-11T05:31:25.005Z,103572.19
2023-02-11T05:33:51.578Z,103581.63
2023-02-11T05:36:18.076Z,103571.84
2023-02-11T05:38:44.504Z,103571.75
2023-02-11T05:41:13.168Z,103559.50
2023-02-11T05:43:39.776Z,103566.50
2023-02-11T05:46:06.398Z,103561.97
2023-02-11T05:48:33.152Z,103559.22
2023-02-11T05:50:59.866Z,103568.00
2023-02-11T05:53:26.454Z,103566.31
2023-02-11T05:55:53.323Z,103566.97
2023-02-11T05:58:19.929Z,103561.88
2023-02-11T06:00:46.452Z,103574.81
2023-02-11T06:03:13.047Z,103564.25
2023-02-11T06:05:39.586Z,103571.22
2023-02-11T06:08:06.162Z,103573.94
2023-02-11T06:10:32.606Z,103573.75
2023-02-11T06:12:59.097Z,103590.44
2023-02-11T06:15:25.605Z,103586.88
2023-02-11T06:17:52.168Z,103578.97
2023-02-11T06:20:19.228Z,103592.81
2023-02-11T06:22:46.143Z,103584.69
2023-02-11T06:25:12.799Z,103579.53
2023-02-11T06:27:39.709Z,103587.44
2023-02-11T06:30:07.454Z,103587.16
2023-02-11T06:32:49.373Z,103582.75
2023-02-11T06:35:15.884Z,103580.88
2023-02-11T06:37:42.391Z,103576.53
2023-02-11T06:40:09.823Z,103580.88
2023-02-11T06:42:38.786Z,103581.63
2023-02-11T06:45:06.206Z,103565.78
2023-02-11T06:47:32.933Z,103583.22
2023-02-11T06:49:59.448Z,103572.66
2023-02-11T06:52:26.071Z,103577.84
2023-02-11T06:54:52.561Z,103572.59
2023-02-11T06:57:19.114Z,103577.69
2023-02-11T06:59:45.593Z,103572.41
2023-02-11T07:02:12.242Z,103573.13
2023-02-11T07:04:38.836Z,103580.09
2023-02-11T07:07:05.449Z,103583.50
2023-02-11T07:09:32.284Z,103585.94
2023-02-11T07:11:58.772Z,103585.75
2023-02-11T07:14:25.570Z,103591.81
2023-02-11T07:16:52.068Z,103583.06
2023-02-11T07:19:18.507Z,103593.44
2023-02-11T07:21:45.024Z,103594.25
2023-02-11T07:24:12.599Z,103602.88
2023-02-11T07:26:39.107Z,103607.09
2023-02-11T07:29:05.613Z,103601.63
2023-02-11T07:31:32.535Z,103606.91
2023-02-11T07:34:01.092Z,103609.34
2023-02-11T07:36:29.341Z,103611.81
2023-02-11T07:38:55.940Z,103613.63
2023-02-11T07:41:24.467Z,103620.41
2023-02-11T07:43:51.635Z,103611.56
2023-02-11T07:46:23.511Z,103623.69
2023-02-11T07:48:50.669Z,103618.41
2023-02-11T07:51:20.817Z,103625.31
2023-02-11T07:53:47.992Z,103632.19
2023-02-11T07:56:16.813Z,103623.31
2023-02-11T07:58:43.867Z,103616.34
2023-02-11T08:01:13.575Z,103618.91
2023-02-11T08:03:42.855Z,103615.31
2023-02-11T08:06:12.305Z,103623.91
2023-02-11T08:08:38.979Z,103623.25
2023-02-11T08:11:07.671Z,103624.75
2023-02-11T08:13:35.071Z,103634.38
2023-02-11T08:16:01.842Z,103630.63
2023-02-11T08:18:28.375Z,103634.84
2023-02-11T08:20:54.832Z,103628.72
2023-02-11T08:23:21.315Z,103633.63
2023-02-11T08:25:47.818Z,103636.16
2023-02-11T08:28:14.291Z,103628.34
2023-02-11T08:30:40.836Z,103630.88
2023-02-11T08:33:07.290Z,103629.84
2023-02-11T08:35:36.252Z,103638.53
2023-02-11T08:38:02.688Z,103640.03
2023-02-11T08:40:29.170Z,103643.44
2023-02-11T08:42:55.673Z,103644.09
2023-02-11T08:45:22.164Z,103654.66
2023-02-11T08:47:48.663Z,103661.25
2023-02-11T08:50:15.143Z,103654.28
2023-02-11T08:52:41.703Z,103650.69
2023-02-11T08:55:08.500Z,103638.41
2023-02-11T08:57:34.962Z,103651.63
2023-02-11T09:00:01.593Z,103655.59
2023-02-11T09:02:28.169Z,103654.47
2023-02-11T09:04:54.698Z,103663.06
2023-02-11T09:07:21.201Z,103654.06
2023-02-11T09:09:47.697Z,103670.31
2023-02-11T09:12:14.226Z,103670.09
2023-02-11T09:14:41.976Z,103671.41
2023-02-11T09:17:08.566Z,103678.97
2023-02-11T09:19:35.300Z,103671.69
2023-02-11T09:22:01.811Z,103678.94
2023-02-11T09:24:28.242Z,103678.53
2023-02-11T09:26:54.776Z,103677.78
2023-02-11T09:29:21.269Z,103685.53
2023-02-11T09:31:47.974Z,103679.16
2023-02-11T09:34:15.868Z,103677.47
2023-02-11T09:36:42.561Z,103681.53
2023-02-11T09:39:13.509Z,103686.44
2023-02-11T09:42:03.834Z,103695.97
2023-02-11T09:44:34.153Z,103693.84
2023-02-11T09:47:42.784Z,103698.47
2023-02-11T09:50:22.220Z,103696.41
2023-02-11T09:52:58.203Z,103702.25
2023-02-11T09:55:37.678Z,103704.56
2023-02-11T09:58:08.137Z,103692.09
2023-02-11T10:00:39.950Z,103700.78
2023-02-11T10:03:29.822Z,103707.06
2023-02-11T10:06:11.468Z,103720.13
2023-02-11T10:09:09.057Z,103716.59
2023-02-11T10:11:58.646Z,103722.56
2023-02-11T10:14:44.020Z,103729.22
2023-02-11T10:17:38.520Z,103729.91
2023-02-11T10:20:11.050Z,103724.94
2023-02-11T10:22:45.631Z,103733.63
2023-02-11T10:25:36.566Z,103727.38
2023-02-11T10:28:12.990Z,103731.41
2023-02-11T10:30:49.651Z,103731.00
2023-02-11T10:33:28.140Z,103740.94
2023-02-11T10:35:54.660Z,103744.03
2023-02-11T10:38:21.228Z,103740.72
2023-02-11T10:40:47.723Z,103745.50
2023-02-11T10:43:16.886Z,103746.97
2023-02-11T10:45:54.078Z,103758.25
2023-02-11T10:48:53.812Z,103744.88
2023-02-11T10:51:34.138Z,103737.88
2023-02-11T10:54:03.572Z,103747.44
2023-02-11T10:56:34.771Z,103757.00
2023-02-11T10:59:15.049Z,103750.59
2023-02-11T11:02:00.941Z,103745.31
2023-02-11T11:04:30.471Z,103747.22
2023-02-11T11:07:09.331Z,103751.16
2023-02-11T11:09:49.309Z,103749.63
2023-02-11T11:12:24.873Z,103761.81
2023-02-11T11:14:59.957Z,103764.78
2023-02-11T11:17:29.530Z,103766.38
2023-02-11T11:20:27.332Z,103768.59
2023-02-11T11:23:17.054Z,103767.22
2023-02-11T11:25:46.502Z,103769.66
2023-02-11T11:28:23.897Z,103774.97
2023-02-11T11:30:53.255Z,103772.75
2023-02-11T11:33:24.818Z,103786.31
2023-02-11T11:36:15.154Z,103788.75
2023-02-11T11:38:58.625Z,103782.81
2023-02-11T11:41:30.621Z,103787.34
2023-02-11T11:44:01.807Z,103784.28
2023-02-11T11:46:32.170Z,103783.81
2023-02-11T11:49:07.552Z,103777.66
2023-02-11T11:51:35.087Z,103781.84
2023-02-11T11:54:07.152Z,103756.97
2023-02-11T11:56:37.720Z,103756.28
2023-02-11T11:59:13.764Z,103762.34
2023-02-11T12:01:55.015Z,103755.06
2023-02-11T12:04:30.593Z,103758.50
2023-02-11T12:07:19.201Z,103763.97
2023-02-11T12:09:51.635Z,103752.31
2023-02-11T12:12:39.377Z,103748.81
2023-02-11T12:15:37.580Z,103746.91
2023-02-11T12:18:38.249Z,103747.88
2023-02-11T12:21:29.386Z,103754.25
2023-02-11T12:24:12.544Z,103745.31
2023-02-11T12:26:56.682Z,103753.19
2023-02-11T12:29:41.850Z,103753.06
2023-02-11T12:32:50.518Z,103755.09
2023-02-11T12:35:23.077Z,103744.25
2023-02-11T12:38:05.743Z,103758.25
2023-02-11T12:40:43.994Z,103751.06
2023-02-11T12:43:25.604Z,103755.06
2023-02-11T12:46:16.914Z,103754.69
2023-02-11T12:49:04.631Z,103752.16
2023-02-11T12:52:08.591Z,103748.78
2023-02-11T12:55:03.932Z,103749.94
2023-02-11T12:57:35.969Z,103753.78
2023-02-11T13:00:20.312Z,103751.22
2023-02-11T13:03:10.281Z,103744.81
2023-02-11T13:05:42.476Z,103746.31
2023-02-11T13:08:25.841Z,103750.81
2023-02-11T13:10:59.678Z,103750.81
2023-02-11T13:13:30.932Z,103750.09
2023-02-11T13:16:08.032Z,103755.09
2023-02-11T13:18:55.901Z,103759.00
2023-02-11T13:21:44.280Z,103743.72
2023-02-11T13:24:26.449Z,103747.09
2023-02-11T13:27:15.840Z,103736.34
2023-02-11T13:30:21.564Z,103744.66
2023-02-11T13:33:03.884Z,103740.56
2023-02-11T13:35:35.919Z,103731.97
2023-02-11T13:38:05.624Z,103733.41
2023-02-11T13:40:36.650Z,103734.00
2023-02-11T13:43:07.523Z,103724.81
2023-02-11T13:45:40.313Z,103722.00
2023-02-11T13:48:25.236Z,103732.41
2023-02-11T13:50:56.526Z,103736.16
2023-02-11T13:53:23.747Z,103740.47
2023-02-11T13:55:52.926Z,103736.38
2023-02-11T13:58:37.153Z,103732.03
2023-02-11T14:01:03.758Z,103736.03
2023-02-11T14:03:51.017Z,103735.19
2023-02-11T14:06:39.972Z,103739.78
2023-02-11T14:09:09.247Z,103747.16
2023-02-11T14:11:44.598Z,103746.59
2023-02-11T14:14:21.816Z,103744.53
2023-02-11T14:17:00.372Z,103745.38
2023-02-11T14:19:38.687Z,103742.00
2023-02-11T14:22:06.797Z,103738.22
2023-02-11T14:24:33.206Z,103748.88
2023-02-11T14:27:25.994Z,103738.84
2023-02-11T14:30:10.947Z,103742.25
2023-02-11T14:32:55.972Z,103745.50
2023-02-11T14:35:41.078Z,103750.69
2023-02-11T14:38:43.686Z,103739.53
2023-02-11T14:41:24.279Z,103749.34
2023-02-11T14:43:55.081Z,103743.44
2023-02-11T14:46:24.713Z,103741.59
2023-02-11T14:48:56.173Z,103747.28
2023-02-11T14:51:26.621Z,103760.53
2023-02-11T14:53:57.887Z,103753.41
2023-02-11T14:56:34.444Z,103756.19
2023-02-11T14:59:02.693Z,103758.91
2023-02-11T15:01:35.147Z,103752.03
2023-02-11T15:04:04.015Z,103757.22
2023-02-11T15:06:42.551Z,103768.47
2023-02-11T15:09:28.026Z,103756.53
2023-02-11T15:11:55.859Z,103756.16
2023-02-11T15:14:29.148Z,103765.19
2023-02-11T15:17:01.607Z,103760.97
2023-02-11T15:19:36.114Z,103768.44
2023-02-11T15:22:06.834Z,103762.84
2023-02-11T15:24:35.756Z,103778.50
2023-02-11T15:27:08.448Z,103780.44
2023-02-11T15:29:38.190Z,103776.75
2023-02-11T15:32:07.187Z,103783.25
2023-02-11T15:34:34.227Z,103767.91
2023-02-11T15:37:02.098Z,103780.88
2023-02-11T15:39:40.940Z,103781.63
2023-02-11T15:42:20.908Z,103777.69
2023-02-11T15:44:54.285Z,103776.50
2023-02-11T15:47:29.572Z,103786.19
2023-02-11T15:49:56.131Z,103776.97
2023-02-11T15:52:26.369Z,103783.97
2023-02-11T15:54:56.149Z,103789.50
2023-02-11T15:57:23.188Z,103792.06
2023-02-11T15:59:56.242Z,103791.75
2023-02-11T16:02:33.911Z,103784.88
2023-02-11T16:05:07.866Z,103786.25
2023-02-11T16:07:52.574Z,103799.00
2023-02-11T16:10:21.953Z,103795.69
2023-02-11T16:12:52.566Z,103797.94
2023-02-11T16:16:02.245Z,103797.41
2023-02-11T16:18:52.165Z,103798.66
2023-02-11T16:21:24.519Z,103804.19
2023-02-11T16:23:56.439Z,103791.69
2023-02-11T16:26:36.267Z,103806.94
2023-02-11T16:29:13.016Z,103808.31
2023-02-11T16:31:42.615Z,103805.25
2023-02-11T16:34:13.923Z,103811.91
2023-02-11T16:36:40.724Z,103817.28
2023-02-11T16:39:07.630Z,103808.91
2023-02-11T16:41:34.148Z,103822.16
2023-02-11T16:44:00.668Z,103809.13
2023-02-11T16:46:27.534Z,103821.53
2023-02-11T16:48:56.360Z,103825.97
2023-02-11T16:51:23.004Z,103830.44
2023-02-11T16:53:49.635Z,103829.69
2023-02-11T16:56:18.110Z,103834.25
2023-02-11T16:58:45.693Z,103840.31
2023-02-11T17:01:14.086Z,103838.81
2023-02-11T17:03:40.897Z,103847.69
2023-02-11T17:06:10.366Z,103855.00
2023-02-11T17:08:36.928Z,103861.16
2023-02-11T17:11:03.722Z,103862.84
2023-02-11T17:13:30.189Z,103861.34
2023-02-11T17:15:56.795Z,103855.50
2023-02-11T17:18:23.278Z,103863.47
2023-02-11T17:20:49.773Z,103869.72
2023-02-11T17:23:16.452Z,103860.34
2023-02-11T17:25:42.920Z,103860.72
2023-02-11T17:28:12.081Z,103871.44
2023-02-11T17:30:41.450Z,103869.81
2023-02-11T17:33:08.433Z,103864.84
2023-02-11T17:35:34.904Z,103864.09
2023-02-11T17:38:01.452Z,103866.94
2023-02-11T17:40:28.097Z,103876.66
2023-02-11T17:42:54.631Z,103873.25
2023-02-11T17:45:22.395Z,103872.81
2023-02-11T17:47:49.483Z,103871.00
2023-02-11T17:50:16.177Z,103886.91
2023-02-11T17:52:42.707Z,103881.72
2023-02-11T17:55:09.271Z,103878.19
2023-02-11T17:57:35.972Z,103885.50
2023-02-11T18:00:02.804Z,103884.75
2023-02-11T18:02:29.350Z,103885.69
2023-02-11T18:04:57.523Z,103885.78
2023-02-11T18:07:25.149Z,103891.25
2023-02-11T18:09:52.162Z,103884.38
2023-02-11T18:12:25.184Z,103880.38
2023-02-11T18:14:57.890Z,103891.72
2023-02-11T18:17:25.097Z,103894.63
2023-02-11T18:19:56.352Z,103892.09
2023-02-11T18:22:24.474Z,103898.41
2023-02-11T18:24:53.084Z,103903.06
2023-02-11T18:27:20.781Z,103903.81
2023-02-11T18:29:47.406Z,103910.16
2023-02-11T18:32:14.202Z,103913.66
2023-02-11T18:34:41.647Z,103903.16
2023-02-11T18:37:08.294Z,103910.16
2023-02-11T18:39:34.788Z,103913.66
2023-02-11T18:42:01.387Z,103916.19
2023-02-11T18:44:28.014Z,103919.13
2023-02-11T18:46:55.025Z,103927.09
2023-02-11T18:49:21.638Z,103922.53
2023-02-11T18:51:48.301Z,103921.78
2023-02-11T18:54:14.888Z,103920.66
2023-02-11T18:56:41.499Z,103914.59
2023-02-11T18:59:08.069Z,103920.84
2023-02-11T19:01:34.724Z,103926.22
2023-02-11T19:04:04.357Z,103922.72
2023-02-11T19:06:34.216Z,103926.50
2023-02-11T19:09:04.845Z,103928.97
2023-02-11T19:11:47.456Z,103932.75
2023-02-11T19:14:25.836Z,103923.09
2023-02-11T19:16:55.800Z,103925.81
2023-02-11T19:19:24.362Z,103927.53
2023-02-11T19:21:50.934Z,103932.00
2023-02-11T19:24:20.886Z,103930.09
2023-02-11T19:26:49.001Z,103946.94
2023-02-11T19:29:16.001Z,103936.41
2023-02-11T19:31:43.449Z,103939.81
2023-02-11T19:34:13.349Z,103960.91
2023-02-11T19:36:40.331Z,103956.56
2023-02-11T19:39:06.821Z,103957.59
2023-02-11T19:41:34.168Z,103967.97
2023-02-11T19:44:01.257Z,103962.88
2023-02-11T19:46:30.635Z,103961.94
2023-02-11T19:48:59.765Z,103970.94
2023-02-11T19:51:26.308Z,103960.16
2023-02-11T19:53:53.850Z,103968.16
2023-02-11T19:56:21.040Z,103957.78
2023-02-11T19:58:48.036Z,103969.03
2023-02-11T20:01:17.784Z,103976.03
2023-02-11T20:03:44.535Z,103975.28
2023-02-11T20:06:17.253Z,103982.34
2023-02-11T20:08:44.308Z,103980.66
2023-02-11T20:11:16.252Z,103983.22
2023-02-11T20:13:43.498Z,103990.22
2023-02-11T20:16:12.946Z,103987.63
2023-02-11T20:18:40.366Z,103982.28
2023-02-11T20:21:18.044Z,103988.41
2023-02-11T20:23:46.492Z,103985.75
2023-02-11T20:26:15.651Z,103986.81
2023-02-11T20:28:42.180Z,103982.44
2023-02-11T20:31:11.058Z,103994.81
2023-02-11T20:33:38.123Z,103994.75
2023-02-11T20:36:13.887Z,103999.75
2023-02-11T20:38:41.423Z,104005.91
2023-02-11T20:41:14.404Z,104006.84
2023-02-11T20:43:46.337Z,104011.19
2023-02-11T20:46:14.641Z,104006.84
2023-02-11T20:48:41.227Z,104006.75
2023-02-11T20:51:13.984Z,104007.78
2023-02-11T20:53:44.050Z,104014.03
2023-02-11T20:56:12.254Z,104001.81
2023-02-11T20:58:39.309Z,104009.00
2023-02-11T21:01:13.825Z,104020.44
2023-02-11T21:03:40.945Z,104028.19
2023-02-11T21:06:08.001Z,104037.84
2023-02-11T21:08:34.546Z,104024.78
2023-02-11T21:11:01.883Z,104033.69
2023-02-11T21:13:28.838Z,104023.34
2023-02-11T21:15:56.964Z,104027.63
2023-02-11T21:18:25.048Z,104040.09
2023-02-11T21:20:53.977Z,104034.97
2023-02-11T21:23:20.969Z,104028.94
2023-02-11T21:25:47.695Z,104036.75
2023-02-11T21:28:14.673Z,104040.16
2023-02-11T21:30:41.999Z,104038.56
2023-02-11T21:33:08.654Z,104051.69
2023-02-11T21:35:36.771Z,104051.63
2023-02-11T21:38:04.012Z,104052.38
2023-02-11T21:40:30.524Z,104048.22
2023-02-11T21:42:57.163Z,104050.75
2023-02-11T21:45:25.284Z,104053.31
2023-02-11T21:47:52.302Z,104055.09
2023-02-11T21:50:19.104Z,104056.91
2023-02-11T21:52:45.723Z,104063.81
2023-02-11T21:55:12.215Z,104057.66
2023-02-11T21:57:38.737Z,104054.44
2023-02-11T22:00:06.856Z,104060.38
2023-02-11T22:02:33.747Z,104060.38
2023-02-11T22:05:00.331Z,104059.72
2023-02-11T22:07:28.072Z,104069.38
2023-02-11T22:09:55.688Z,104069.44
2023-02-11T22:12:23.047Z,104069.56
2023-02-11T22:14:49.567Z,104073.91
2023-02-11T22:17:16.230Z,104073.22
2023-02-11T22:19:42.800Z,104076.56
2023-02-11T22:22:09.488Z,104077.56
2023-02-11T22:24:35.995Z,104077.56
2023-02-11T22:27:03.177Z,104076.63
2023-02-11T22:29:29.691Z,104081.06
2023-02-11T22:31:56.197Z,104074.09
2023-02-11T22:34:22.685Z,104079.28
2023-02-11T22:36:49.179Z,104081.06
2023-02-11T22:39:17.442Z,104080.22
2023-02-11T22:41:45.568Z,104085.50
2023-02-11T22:44:12.418Z,104077.66
2023-02-11T22:46:39.079Z,104084.72
2023-02-11T22:49:06.894Z,104080.38
2023-02-11T22:51:33.712Z,104082.09
2023-02-11T22:54:02.322Z,104080.31
2023-02-11T22:56:31.043Z,104077.91
2023-02-11T22:58:59.552Z,104084.84
2023-02-11T23:01:26.794Z,104086.72
2023-02-11T23:03:53.335Z,104074.44
2023-02-11T23:06:21.252Z,104083.31
2023-02-11T23:08:48.145Z,104081.31
2023-02-11T23:11:18.256Z,104083.13
2023-02-11T23:13:46.333Z,104085.00
2023-02-11T23:16:16.316Z,104085.84
2023-02-11T23:18:44.424Z,104091.16
2023-02-11T23:21:18.458Z,104086.72
2023-02-11T23:23:45.191Z,104085.09
2023-02-11T23:26:13.854Z,104089.44
2023-02-11T23:28:41.488Z,104101.66
2023-02-11T23:31:22.342Z,104083.22
2023-02-11T23:33:49.660Z,104093.78
2023-02-11T23:36:17.569Z,104093.03
2023-02-11T23:38:45.112Z,104097.47
2023-02-11T23:41:12.855Z,104089.38
2023-02-11T23:43:39.607Z,104085.84
2023-02-11T23:46:06.966Z,104093.13
2023-02-11T23:48:35.928Z,104096.53
2023-02-11T23:51:03.676Z,104089.72
2023-02-11T23:53:30.657Z,104094.06
2023-02-11T23:55:57.457Z,104086.41
2023-02-11T23:58:24.265Z,104088.94
